Página principal
METAR-TAF:

METAR-TAF

Aeroportos :

Dubai, Emirados Árabes Unidos

Aeroporto Internacional de Dubai

latitude: 25-15-10N, longitude: 055-21-52E, altura: 8 m

Observação actual do tempo

O boletim foi feito há 43 minutos, às 01:00 UTC
Vento 4 kt de sudeste
Temperatura 27°C
Humidade 70%
Pressão 1008 hPa
Visibilidade 10 km ou mais
sem nuvens abaixo de 1500 metros e sem cumulonimbus

METAR: OMDB 180100Z 13004KT CAVOK 27/21 Q1008 NOSIG

Hora: 05:43 (01:43 UTC)

Previsão

O boletim foi feito há 2 horas e 44 minutos, às 22:59 UTC
Previsão válida de 18 às 00 UTC a 19 às 06 UTC
Vento 5 kt de sudeste
Visibilidade 10 km ou mais
sem nuvens abaixo de 1500 metros e sem cumulonimbus
Probabilidade 30%
de 18 às 00 UTC a 18 às 04 UTC
Visibilidade: 4000 m
bruma
Tornando-se
de 18 às 07 UTC a 18 às 09 UTC
Vento 10 kt de noroeste
Tornando-se
de 18 às 15 UTC a 18 às 17 UTC
Vento 7 kt de este

TAF: OMDB 172259Z 1800/1906 14005KT CAVOK PROB30 1800/1804 4000 HZ BECMG 1807/1809 32010KT BECMG 1815/1817 08007KT

Observações e previsões do tempo de mais de 4000 aeroportos (mensagens METAR e TAF).

As estações disponíveis são os pontos amarelos e vermelhos sobre o mapa.

Mova o rato sobre o mapa para ver o nome da estação.

Depois clique no ponto para visualizar as observações e previsões meteorológicas.

Para alterar o mapa : clique nos botões verdes com uma cruz preta para aumentar o zoom; no botão verde com uma pitada de zoom; ou nas setas verdes para mapas adjacentes.


METAR-TAF: